CPX81 Details

Departure: Kingsford Smith International Airport (YSSY)
Arrival: Daniel K Inouye International Airport (PHNL) at N/A
Notes:


Current Weather Information
YSSY 191600Z 28011KT CAVOK 09/M01 Q1023
PHNL 191553Z 00000KT 10SM FEW025 24/19 A2996 RMK AO2 SLP144 T02440194